sensor_id;sensor_type;location;lat;lon;timestamp;pressure;altitude;pressure_sealevel;temperature;humidity
6435;BME280;3250;42.694;23.278;2023-10-31T08:40:24;94869.25;;;20.54;56.40
6435;BME280;3250;42.694;23.278;2023-10-31T08:42:49;94874.19;;;20.91;55.39
6435;BME280;3250;42.694;23.278;2023-10-31T08:45:15;94859.88;;;21.16;55.13
6435;BME280;3250;42.694;23.278;2023-10-31T08:47:40;94855.41;;;21.45;53.45
6435;BME280;3250;42.694;23.278;2023-10-31T08:50:07;94844.69;;;21.51;52.87
6435;BME280;3250;42.694;23.278;2023-10-31T08:52:37;94839.66;;;21.39;53.11
6435;BME280;3250;42.694;23.278;2023-10-31T08:55:03;94852.13;;;21.59;53.55
6435;BME280;3250;42.694;23.278;2023-10-31T08:57:29;94843.28;;;21.58;52.94
6435;BME280;3250;42.694;23.278;2023-10-31T08:59:55;94828.75;;;21.69;52.76
6435;BME280;3250;42.694;23.278;2023-10-31T09:02:21;94841.44;;;21.54;52.63
6435;BME280;3250;42.694;23.278;2023-10-31T09:04:46;94831.69;;;21.34;52.82
6435;BME280;3250;42.694;23.278;2023-10-31T09:07:11;94824.25;;;21.21;53.88
6435;BME280;3250;42.694;23.278;2023-10-31T09:09:37;94808.53;;;21.48;53.64
6435;BME280;3250;42.694;23.278;2023-10-31T09:12:02;94821.41;;;21.46;52.73
6435;BME280;3250;42.694;23.278;2023-10-31T09:14:28;94805.66;;;21.39;52.75
6435;BME280;3250;42.694;23.278;2023-10-31T09:16:53;94809.78;;;21.61;53.02
6435;BME280;3250;42.694;23.278;2023-10-31T09:19:19;94803.56;;;21.65;52.60
6435;BME280;3250;42.694;23.278;2023-10-31T09:21:44;94800.94;;;21.60;52.86
6435;BME280;3250;42.694;23.278;2023-10-31T09:24:11;94792.03;;;21.65;52.88
6435;BME280;3250;42.694;23.278;2023-10-31T09:26:36;94785.81;;;21.74;52.62
6435;BME280;3250;42.694;23.278;2023-10-31T09:29:02;94777.06;;;21.93;52.60
6435;BME280;3250;42.694;23.278;2023-10-31T09:31:28;94776.22;;;21.97;52.03
6435;BME280;3250;42.694;23.278;2023-10-31T09:33:54;94778.69;;;21.89;51.55
6435;BME280;3250;42.694;23.278;2023-10-31T09:36:19;94776.75;;;21.70;51.84
6435;BME280;3250;42.694;23.278;2023-10-31T09:38:45;94753.41;;;21.71;52.45
6435;BME280;3250;42.694;23.278;2023-10-31T09:41:12;94761.22;;;21.96;52.04
6435;BME280;3250;42.694;23.278;2023-10-31T09:43:37;94752.78;;;22.08;51.32
6435;BME280;3250;42.694;23.278;2023-10-31T09:46:03;94755.47;;;22.08;51.31
6435;BME280;3250;42.694;23.278;2023-10-31T09:48:30;94751.44;;;22.10;51.17
6435;BME280;3250;42.694;23.278;2023-10-31T09:50:56;94730.69;;;21.92;51.04
6435;BME280;3250;42.694;23.278;2023-10-31T09:53:23;94746.97;;;22.01;51.12
6435;BME280;3250;42.694;23.278;2023-10-31T09:55:49;94730.13;;;21.95;50.82
6435;BME280;3250;42.694;23.278;2023-10-31T09:58:15;94713.06;;;21.86;51.00
6435;BME280;3250;42.694;23.278;2023-10-31T10:00:40;94721.72;;;21.78;52.02
6435;BME280;3250;42.694;23.278;2023-10-31T10:03:07;94711.19;;;21.58;52.33
6435;BME280;3250;42.694;23.278;2023-10-31T10:05:36;94711.00;;;21.78;52.22
6435;BME280;3250;42.694;23.278;2023-10-31T10:08:03;94709.78;;;21.89;52.01
6435;BME280;3250;42.694;23.278;2023-10-31T10:10:28;94711.00;;;21.78;50.78
6435;BME280;3250;42.694;23.278;2023-10-31T10:12:55;94693.72;;;21.36;51.89
6435;BME280;3250;42.694;23.278;2023-10-31T10:15:21;94689.06;;;21.13;52.75
6435;BME280;3250;42.694;23.278;2023-10-31T10:17:51;94686.78;;;20.96;53.07
6435;BME280;3250;42.694;23.278;2023-10-31T10:20:17;94680.63;;;21.01;54.12
6435;BME280;3250;42.694;23.278;2023-10-31T10:22:44;94665.03;;;21.08;53.31
6435;BME280;3250;42.694;23.278;2023-10-31T10:25:17;94676.47;;;21.14;53.13
6435;BME280;3250;42.694;23.278;2023-10-31T10:27:45;94675.13;;;21.16;53.13
6435;BME280;3250;42.694;23.278;2023-10-31T10:30:12;94672.78;;;21.09;52.38
6435;BME280;3250;42.694;23.278;2023-10-31T10:32:38;94678.94;;;21.10;52.60
6435;BME280;3250;42.694;23.278;2023-10-31T10:35:04;94674.13;;;21.07;52.78
6435;BME280;3250;42.694;23.278;2023-10-31T10:37:30;94662.38;;;21.03;52.90
6435;BME280;3250;42.694;23.278;2023-10-31T10:39:57;94651.97;;;21.01;53.29
6435;BME280;3250;42.694;23.278;2023-10-31T10:45:05;94632.72;;;20.99;52.69
6435;BME280;3250;42.694;23.278;2023-10-31T10:47:33;94628.78;;;20.92;52.37
6435;BME280;3250;42.694;23.278;2023-10-31T10:50:00;94622.28;;;20.98;52.53
6435;BME280;3250;42.694;23.278;2023-10-31T10:52:47;94624.72;;;20.94;52.55
6435;BME280;3250;42.694;23.278;2023-10-31T10:55:21;94617.81;;;20.88;51.85
6435;BME280;3250;42.694;23.278;2023-10-31T10:58:08;94614.59;;;20.86;49.67
6435;BME280;3250;42.694;23.278;2023-10-31T11:00:35;94619.28;;;20.76;50.89
6435;BME280;3250;42.694;23.278;2023-10-31T11:03:02;94615.28;;;20.68;51.17
6435;BME280;3250;42.694;23.278;2023-10-31T11:05:30;94625.72;;;20.69;50.44
6435;BME280;3250;42.694;23.278;2023-10-31T11:07:57;94611.81;;;20.67;50.54
6435;BME280;3250;42.694;23.278;2023-10-31T11:10:22;94609.06;;;20.78;50.66
6435;BME280;3250;42.694;23.278;2023-10-31T11:12:48;94590.91;;;20.75;50.94
6435;BME280;3250;42.694;23.278;2023-10-31T11:15:19;94596.94;;;20.85;50.62
6435;BME280;3250;42.694;23.278;2023-10-31T11:17:46;94592.19;;;20.82;50.81
6435;BME280;3250;42.694;23.278;2023-10-31T11:20:15;94576.81;;;20.64;48.54
6435;BME280;3250;42.694;23.278;2023-10-31T11:22:43;94580.22;;;20.69;48.06
6435;BME280;3250;42.694;23.278;2023-10-31T11:25:23;94577.00;;;20.73;46.52
6435;BME280;3250;42.694;23.278;2023-10-31T11:27:53;94564.47;;;20.68;47.02
6435;BME280;3250;42.694;23.278;2023-10-31T11:32:59;94566.38;;;20.62;47.74
6435;BME280;3250;42.694;23.278;2023-10-31T11:35:29;94543.44;;;20.56;47.03
6435;BME280;3250;42.694;23.278;2023-10-31T11:38:03;94554.63;;;20.63;46.07
6435;BME280;3250;42.694;23.278;2023-10-31T11:40:29;94537.81;;;20.58;45.30
6435;BME280;3250;42.694;23.278;2023-10-31T11:43:00;94537.75;;;20.63;46.09
6435;BME280;3250;42.694;23.278;2023-10-31T11:48:05;94532.09;;;20.69;45.54
6435;BME280;3250;42.694;23.278;2023-10-31T11:50:32;94536.25;;;20.81;44.40
6435;BME280;3250;42.694;23.278;2023-10-31T11:53:05;94521.16;;;20.66;44.51
6435;BME280;3250;42.694;23.278;2023-10-31T11:55:36;94525.63;;;20.76;44.50
6435;BME280;3250;42.694;23.278;2023-10-31T11:58:20;94530.91;;;20.81;43.97
6435;BME280;3250;42.694;23.278;2023-10-31T12:00:48;94523.41;;;20.83;44.52
6435;BME280;3250;42.694;23.278;2023-10-31T12:03:16;94527.91;;;20.87;45.55
6435;BME280;3250;42.694;23.278;2023-10-31T12:05:56;94501.72;;;20.84;44.68
6435;BME280;3250;42.694;23.278;2023-10-31T12:08:36;94505.34;;;20.93;45.22
6435;BME280;3250;42.694;23.278;2023-10-31T12:11:19;94506.63;;;21.01;44.41
6435;BME280;3250;42.694;23.278;2023-10-31T12:13:57;94502.28;;;21.05;44.93
6435;BME280;3250;42.694;23.278;2023-10-31T12:16:26;94509.13;;;21.16;44.22
6435;BME280;3250;42.694;23.278;2023-10-31T12:19:05;94503.78;;;21.16;44.00
6435;BME280;3250;42.694;23.278;2023-10-31T12:24:07;94504.34;;;21.37;45.07
6435;BME280;3250;42.694;23.278;2023-10-31T12:26:34;94492.88;;;21.55;44.19
6435;BME280;3250;42.694;23.278;2023-10-31T12:29:14;94490.22;;;21.74;43.68
6435;BME280;3250;42.694;23.278;2023-10-31T12:31:47;94490.59;;;21.86;43.36
6435;BME280;3250;42.694;23.278;2023-10-31T12:34:18;94463.97;;;21.90;43.53
6435;BME280;3250;42.694;23.278;2023-10-31T12:36:46;94475.38;;;22.00;43.19
6435;BME280;3250;42.694;23.278;2023-10-31T12:39:12;94471.16;;;21.94;44.01
6435;BME280;3250;42.694;23.278;2023-10-31T12:41:39;94454.16;;;21.85;43.99
6435;BME280;3250;42.694;23.278;2023-10-31T12:44:05;94457.19;;;21.97;44.37
6435;BME280;3250;42.694;23.278;2023-10-31T12:46:32;94444.38;;;21.94;44.45
6435;BME280;3250;42.694;23.278;2023-10-31T12:48:58;94448.78;;;21.85;44.92
6435;BME280;3250;42.694;23.278;2023-10-31T12:51:24;94448.94;;;21.75;45.05
6435;BME280;3250;42.694;23.278;2023-10-31T12:53:53;94457.06;;;21.70;45.39
6435;BME280;3250;42.694;23.278;2023-10-31T12:56:41;94462.84;;;21.58;46.03
6435;BME280;3250;42.694;23.278;2023-10-31T12:59:08;94460.38;;;21.43;46.75
6435;BME280;3250;42.694;23.278;2023-10-31T13:01:42;94461.06;;;21.30;46.87
6435;BME280;3250;42.694;23.278;2023-10-31T13:04:08;94458.22;;;21.21;47.74
6435;BME280;3250;42.694;23.278;2023-10-31T13:06:35;94461.13;;;21.25;47.15
6435;BME280;3250;42.694;23.278;2023-10-31T13:09:01;94443.56;;;21.14;47.91
6435;BME280;3250;42.694;23.278;2023-10-31T13:11:30;94459.06;;;21.17;47.63
6435;BME280;3250;42.694;23.278;2023-10-31T13:13:55;94455.06;;;21.14;48.03
6435;BME280;3250;42.694;23.278;2023-10-31T13:16:21;94455.63;;;21.11;47.45
6435;BME280;3250;42.694;23.278;2023-10-31T13:18:46;94446.59;;;21.07;47.91
6435;BME280;3250;42.694;23.278;2023-10-31T13:21:12;94431.25;;;21.13;47.96
6435;BME280;3250;42.694;23.278;2023-10-31T13:23:40;94434.44;;;21.15;47.94
6435;BME280;3250;42.694;23.278;2023-10-31T13:26:09;94444.13;;;21.10;48.49
6435;BME280;3250;42.694;23.278;2023-10-31T13:28:34;94436.09;;;21.10;48.67
6435;BME280;3250;42.694;23.278;2023-10-31T13:31:00;94437.66;;;21.17;48.40
6435;BME280;3250;42.694;23.278;2023-10-31T13:33:25;94433.56;;;21.24;49.20
6435;BME280;3250;42.694;23.278;2023-10-31T13:35:51;94426.31;;;21.25;48.22
6435;BME280;3250;42.694;23.278;2023-10-31T13:38:17;94437.41;;;21.37;47.70
6435;BME280;3250;42.694;23.278;2023-10-31T13:40:43;94425.88;;;21.36;47.90
6435;BME280;3250;42.694;23.278;2023-10-31T13:43:09;94438.94;;;21.43;48.37
6435;BME280;3250;42.694;23.278;2023-10-31T13:45:34;94429.31;;;21.42;48.47
6435;BME280;3250;42.694;23.278;2023-10-31T13:47:59;94418.00;;;21.45;48.41
6435;BME280;3250;42.694;23.278;2023-10-31T13:50:25;94413.09;;;21.52;47.74
6435;BME280;3250;42.694;23.278;2023-10-31T13:52:50;94403.75;;;21.50;47.96
6435;BME280;3250;42.694;23.278;2023-10-31T13:55:17;94420.34;;;21.52;47.97
6435;BME280;3250;42.694;23.278;2023-10-31T13:57:44;94425.75;;;21.46;48.33
6435;BME280;3250;42.694;23.278;2023-10-31T14:00:09;94427.00;;;21.35;48.47
6435;BME280;3250;42.694;23.278;2023-10-31T14:02:35;94432.41;;;21.30;48.60
6435;BME280;3250;42.694;23.278;2023-10-31T14:05:01;94437.03;;;21.25;48.73
6435;BME280;3250;42.694;23.278;2023-10-31T14:07:27;94428.56;;;21.18;48.54
6435;BME280;3250;42.694;23.278;2023-10-31T14:09:53;94445.97;;;21.15;48.82
6435;BME280;3250;42.694;23.278;2023-10-31T14:12:18;94436.41;;;21.09;48.83
6435;BME280;3250;42.694;23.278;2023-10-31T14:14:44;94426.09;;;20.97;49.19
6435;BME280;3250;42.694;23.278;2023-10-31T14:17:13;94422.38;;;20.93;50.18
6435;BME280;3250;42.694;23.278;2023-10-31T14:19:39;94424.88;;;20.85;50.22
6435;BME280;3250;42.694;23.278;2023-10-31T14:22:04;94423.88;;;20.81;50.70
6435;BME280;3250;42.694;23.278;2023-10-31T14:24:29;94433.69;;;20.66;51.48
6435;BME280;3250;42.694;23.278;2023-10-31T14:26:55;94422.84;;;20.53;51.34
6435;BME280;3250;42.694;23.278;2023-10-31T14:29:20;94428.44;;;20.56;52.05
6435;BME280;3250;42.694;23.278;2023-10-31T14:31:46;94428.72;;;20.55;52.36
6435;BME280;3250;42.694;23.278;2023-10-31T14:34:11;94422.09;;;20.47;52.79
6435;BME280;3250;42.694;23.278;2023-10-31T14:36:37;94413.09;;;20.33;53.26
6435;BME280;3250;42.694;23.278;2023-10-31T14:39:02;94427.38;;;20.23;54.02
6435;BME280;3250;42.694;23.278;2023-10-31T14:41:28;94396.50;;;20.07;52.70
6435;BME280;3250;42.694;23.278;2023-10-31T14:43:58;94424.75;;;20.18;53.03
6435;BME280;3250;42.694;23.278;2023-10-31T14:46:24;94417.59;;;20.09;53.87
6435;BME280;3250;42.694;23.278;2023-10-31T14:48:49;94412.06;;;20.00;54.17
6435;BME280;3250;42.694;23.278;2023-10-31T14:51:15;94409.44;;;19.95;54.21
6435;BME280;3250;42.694;23.278;2023-10-31T14:53:40;94405.25;;;19.89;53.97
6435;BME280;3250;42.694;23.278;2023-10-31T14:56:06;94413.06;;;19.80;53.92
6435;BME280;3250;42.694;23.278;2023-10-31T14:58:31;94410.94;;;19.77;54.44
6435;BME280;3250;42.694;23.278;2023-10-31T15:00:57;94405.34;;;19.74;54.29
6435;BME280;3250;42.694;23.278;2023-10-31T15:03:22;94399.50;;;19.72;54.71
6435;BME280;3250;42.694;23.278;2023-10-31T15:05:48;94402.72;;;19.64;54.93
6435;BME280;3250;42.694;23.278;2023-10-31T15:08:13;94401.19;;;19.57;55.36
6435;BME280;3250;42.694;23.278;2023-10-31T15:10:39;94397.97;;;19.55;55.84
6435;BME280;3250;42.694;23.278;2023-10-31T15:13:04;94402.78;;;19.58;55.26
6435;BME280;3250;42.694;23.278;2023-10-31T15:15:29;94403.63;;;19.49;55.41
6435;BME280;3250;42.694;23.278;2023-10-31T15:17:55;94410.66;;;19.35;55.85
6435;BME280;3250;42.694;23.278;2023-10-31T15:20:21;94407.22;;;19.24;55.53
6435;BME280;3250;42.694;23.278;2023-10-31T15:22:46;94387.56;;;19.10;56.00
6435;BME280;3250;42.694;23.278;2023-10-31T15:25:12;94408.06;;;19.14;55.54
6435;BME280;3250;42.694;23.278;2023-10-31T15:27:38;94381.44;;;19.04;55.75
6435;BME280;3250;42.694;23.278;2023-10-31T15:30:06;94395.28;;;19.11;56.92
6435;BME280;3250;42.694;23.278;2023-10-31T15:32:31;94382.50;;;19.03;56.55
6435;BME280;3250;42.694;23.278;2023-10-31T15:34:59;94378.56;;;18.96;56.52
6435;BME280;3250;42.694;23.278;2023-10-31T15:37:24;94406.81;;;19.02;57.01
6435;BME280;3250;42.694;23.278;2023-10-31T15:39:49;94396.19;;;18.92;57.81
6435;BME280;3250;42.694;23.278;2023-10-31T15:42:16;94408.16;;;18.94;58.05
6435;BME280;3250;42.694;23.278;2023-10-31T15:44:42;94400.72;;;18.86;58.28
6435;BME280;3250;42.694;23.278;2023-10-31T15:47:08;94402.38;;;18.77;58.81
6435;BME280;3250;42.694;23.278;2023-10-31T15:49:34;94397.88;;;18.72;59.08
6435;BME280;3250;42.694;23.278;2023-10-31T15:52:00;94396.28;;;18.61;58.11
6435;BME280;3250;42.694;23.278;2023-10-31T15:54:28;94382.47;;;18.49;59.41
6435;BME280;3250;42.694;23.278;2023-10-31T15:56:53;94397.88;;;18.52;59.30
6435;BME280;3250;42.694;23.278;2023-10-31T15:59:19;94396.06;;;18.47;59.46
6435;BME280;3250;42.694;23.278;2023-10-31T16:01:44;94399.00;;;18.41;59.53
6435;BME280;3250;42.694;23.278;2023-10-31T16:04:09;94385.69;;;18.31;59.39
6435;BME280;3250;42.694;23.278;2023-10-31T16:06:35;94406.19;;;18.35;59.25
6435;BME280;3250;42.694;23.278;2023-10-31T16:09:01;94415.03;;;18.31;58.90
6435;BME280;3250;42.694;23.278;2023-10-31T16:11:28;94424.91;;;18.15;59.33
6435;BME280;3250;42.694;23.278;2023-10-31T16:13:53;94420.63;;;18.04;59.78
6435;BME280;3250;42.694;23.278;2023-10-31T16:16:19;94415.84;;;18.11;60.13
6435;BME280;3250;42.694;23.278;2023-10-31T16:18:44;94427.56;;;18.15;59.81
6435;BME280;3250;42.694;23.278;2023-10-31T16:21:20;94427.00;;;18.18;59.70
6435;BME280;3250;42.694;23.278;2023-10-31T16:23:47;94426.50;;;18.21;59.27
6435;BME280;3250;42.694;23.278;2023-10-31T16:26:13;94428.09;;;18.22;59.17
6435;BME280;3250;42.694;23.278;2023-10-31T16:28:40;94431.28;;;18.24;59.88
6435;BME280;3250;42.694;23.278;2023-10-31T16:31:06;94428.06;;;18.17;59.93
6435;BME280;3250;42.694;23.278;2023-10-31T16:33:31;94435.81;;;18.24;60.05
6435;BME280;3250;42.694;23.278;2023-10-31T16:35:57;94437.66;;;18.18;60.11
6435;BME280;3250;42.694;23.278;2023-10-31T16:38:23;94440.88;;;18.20;59.88
6435;BME280;3250;42.694;23.278;2023-10-31T16:40:48;94434.22;;;18.23;59.74
6435;BME280;3250;42.694;23.278;2023-10-31T16:43:14;94446.19;;;18.20;59.90
6435;BME280;3250;42.694;23.278;2023-10-31T16:45:41;94443.00;;;18.23;60.36
6435;BME280;3250;42.694;23.278;2023-10-31T16:48:06;94447.53;;;18.28;59.57
6435;BME280;3250;42.694;23.278;2023-10-31T16:50:31;94446.19;;;18.30;59.49
6435;BME280;3250;42.694;23.278;2023-10-31T16:52:58;94450.72;;;18.35;59.63
6435;BME280;3250;42.694;23.278;2023-10-31T16:55:24;94446.47;;;18.29;59.84
6435;BME280;3250;42.694;23.278;2023-10-31T16:57:50;94437.41;;;18.25;60.19
6435;BME280;3250;42.694;23.278;2023-10-31T17:00:16;94438.72;;;18.27;59.80
6435;BME280;3250;42.694;23.278;2023-10-31T17:02:42;94447.28;;;18.24;60.16
6435;BME280;3250;42.694;23.278;2023-10-31T17:05:07;94439.03;;;18.16;60.31
6435;BME280;3250;42.694;23.278;2023-10-31T17:07:33;94441.69;;;18.21;60.08
6435;BME280;3250;42.694;23.278;2023-10-31T17:09:58;94429.69;;;18.23;60.95
6435;BME280;3250;42.694;23.278;2023-10-31T17:12:24;94427.28;;;18.27;60.30
6435;BME280;3250;42.694;23.278;2023-10-31T17:14:49;94419.06;;;17.98;61.40
6435;BME280;3250;42.694;23.278;2023-10-31T17:17:15;94436.63;;;18.04;61.47
6435;BME280;3250;42.694;23.278;2023-10-31T17:19:41;94425.16;;;18.14;60.73
6435;BME280;3250;42.694;23.278;2023-10-31T17:22:06;94424.59;;;18.17;60.19
6435;BME280;3250;42.694;23.278;2023-10-31T17:24:33;94425.16;;;18.24;60.83
6435;BME280;3250;42.694;23.278;2023-10-31T17:26:58;94435.25;;;18.27;60.86
6435;BME280;3250;42.694;23.278;2023-10-31T17:29:24;94433.16;;;18.24;60.89
6435;BME280;3250;42.694;23.278;2023-10-31T17:31:49;94443.81;;;18.19;62.04
6435;BME280;3250;42.694;23.278;2023-10-31T17:34:15;94445.16;;;18.06;62.16
6435;BME280;3250;42.694;23.278;2023-10-31T17:36:41;94443.53;;;18.00;62.24
6435;BME280;3250;42.694;23.278;2023-10-31T17:39:06;94452.59;;;17.99;62.87
6435;BME280;3250;42.694;23.278;2023-10-31T17:41:34;94447.00;;;18.00;63.45
6435;BME280;3250;42.694;23.278;2023-10-31T17:43:59;94451.03;;;17.98;62.98
6435;BME280;3250;42.694;23.278;2023-10-31T17:46:25;94449.41;;;17.92;62.88
6435;BME280;3250;42.694;23.278;2023-10-31T17:48:50;94441.41;;;17.87;63.19
6435;BME280;3250;42.694;23.278;2023-10-31T17:51:16;94442.75;;;17.84;63.02
6435;BME280;3250;42.694;23.278;2023-10-31T17:53:41;94413.94;;;17.61;63.22
6435;BME280;3250;42.694;23.278;2023-10-31T17:56:08;94426.25;;;17.72;63.17
6435;BME280;3250;42.694;23.278;2023-10-31T17:58:34;94426.50;;;17.76;63.42
6435;BME280;3250;42.694;23.278;2023-10-31T18:00:59;94418.50;;;17.76;63.60
6435;BME280;3250;42.694;23.278;2023-10-31T18:03:24;94428.34;;;17.75;64.07
6435;BME280;3250;42.694;23.278;2023-10-31T18:05:50;94428.34;;;17.65;63.84
6435;BME280;3250;42.694;23.278;2023-10-31T18:08:16;94409.13;;;17.48;64.91
6435;BME280;3250;42.694;23.278;2023-10-31T18:10:41;94397.19;;;17.55;63.86
6435;BME280;3250;42.694;23.278;2023-10-31T18:13:08;94396.91;;;17.57;63.40
6435;BME280;3250;42.694;23.278;2023-10-31T18:15:34;94380.38;;;17.40;63.76
6435;BME280;3250;42.694;23.278;2023-10-31T18:18:00;94402.50;;;17.55;63.98
6435;BME280;3250;42.694;23.278;2023-10-31T18:20:25;94394.53;;;17.55;63.51
6435;BME280;3250;42.694;23.278;2023-10-31T18:22:51;94402.50;;;17.60;63.80
6435;BME280;3250;42.694;23.278;2023-10-31T18:25:16;94425.94;;;17.53;64.50
6435;BME280;3250;42.694;23.278;2023-10-31T18:27:42;94420.84;;;17.57;64.25
6435;BME280;3250;42.694;23.278;2023-10-31T18:30:08;94414.22;;;17.59;64.26
6435;BME280;3250;42.694;23.278;2023-10-31T18:32:34;94423.25;;;17.53;64.48
6435;BME280;3250;42.694;23.278;2023-10-31T18:35:00;94438.16;;;17.44;64.66
6435;BME280;3250;42.694;23.278;2023-10-31T18:37:25;94428.78;;;17.31;64.72
6435;BME280;3250;42.694;23.278;2023-10-31T18:39:51;94417.88;;;17.23;65.29
6435;BME280;3250;42.694;23.278;2023-10-31T18:42:17;94420.53;;;17.23;65.23
6435;BME280;3250;42.694;23.278;2023-10-31T18:44:42;94413.34;;;17.18;64.90
6435;BME280;3250;42.694;23.278;2023-10-31T18:47:09;94410.66;;;17.13;64.96
6435;BME280;3250;42.694;23.278;2023-10-31T18:49:35;94412.81;;;17.11;65.49
6435;BME280;3250;42.694;23.278;2023-10-31T18:52:00;94417.31;;;17.16;65.54
6435;BME280;3250;42.694;23.278;2023-10-31T18:54:26;94421.03;;;17.15;65.59
6435;BME280;3250;42.694;23.278;2023-10-31T18:56:52;94386.84;;;16.71;66.86
6435;BME280;3250;42.694;23.278;2023-10-31T18:59:26;94386.84;;;16.71;67.46
6435;BME280;3250;42.694;23.278;2023-10-31T19:01:52;94412.69;;;16.81;67.29
6435;BME280;3250;42.694;23.278;2023-10-31T19:04:26;94404.41;;;16.72;67.01
6435;BME280;3250;42.694;23.278;2023-10-31T19:06:53;94411.84;;;16.70;67.62
6435;BME280;3250;42.694;23.278;2023-10-31T19:09:19;94422.22;;;16.67;66.90
6435;BME280;3250;42.694;23.278;2023-10-31T19:11:48;94415.00;;;16.62;67.20
6435;BME280;3250;42.694;23.278;2023-10-31T19:14:14;94418.50;;;16.68;67.42
6435;BME280;3250;42.694;23.278;2023-10-31T19:16:40;94426.88;;;16.49;67.22
6435;BME280;3250;42.694;23.278;2023-10-31T19:19:06;94422.81;;;16.37;67.98
6435;BME280;3250;42.694;23.278;2023-10-31T19:21:32;94432.44;;;16.43;68.57
6435;BME280;3250;42.694;23.278;2023-10-31T19:23:58;94427.38;;;16.41;68.32
6435;BME280;3250;42.694;23.278;2023-10-31T19:26:24;94432.44;;;16.48;67.83
6435;BME280;3250;42.694;23.278;2023-10-31T19:28:49;94425.28;;;16.48;66.64
6435;BME280;3250;42.694;23.278;2023-10-31T19:31:15;94444.66;;;16.49;66.13
6435;BME280;3250;42.694;23.278;2023-10-31T19:33:43;94438.06;;;16.51;66.28
6435;BME280;3250;42.694;23.278;2023-10-31T19:36:08;94442.59;;;16.56;66.12
6435;BME280;3250;42.694;23.278;2023-10-31T19:38:34;94441.31;;;16.64;65.66
6435;BME280;3250;42.694;23.278;2023-10-31T19:41:00;94422.38;;;16.55;65.43
6435;BME280;3250;42.694;23.278;2023-10-31T19:43:26;94438.97;;;16.72;65.46
6435;BME280;3250;42.694;23.278;2023-10-31T19:46:01;94430.25;;;16.82;64.70
6435;BME280;3250;42.694;23.278;2023-10-31T19:48:27;94398.59;;;16.75;64.78
6435;BME280;3250;42.694;23.278;2023-10-31T19:50:54;94406.31;;;16.87;65.07
6435;BME280;3250;42.694;23.278;2023-10-31T19:53:19;94400.22;;;16.86;64.22
6435;BME280;3250;42.694;23.278;2023-10-31T19:55:45;94382.91;;;16.79;64.08
6435;BME280;3250;42.694;23.278;2023-10-31T19:58:13;94393.56;;;16.89;63.87
6435;BME280;3250;42.694;23.278;2023-10-31T20:00:39;94406.31;;;16.87;64.13
6435;BME280;3250;42.694;23.278;2023-10-31T20:03:05;94394.91;;;16.86;64.53
6435;BME280;3250;42.694;23.278;2023-10-31T20:05:31;94378.41;;;16.84;65.30
6435;BME280;3250;42.694;23.278;2023-10-31T20:07:57;94378.69;;;16.88;63.79
6435;BME280;3250;42.694;23.278;2023-10-31T20:10:22;94401.59;;;16.94;62.85
6435;BME280;3250;42.694;23.278;2023-10-31T20:12:48;94419.91;;;16.95;63.02
6435;BME280;3250;42.694;23.278;2023-10-31T20:15:14;94403.94;;;16.90;63.36
6435;BME280;3250;42.694;23.278;2023-10-31T20:17:40;94395.97;;;16.90;62.53
6435;BME280;3250;42.694;23.278;2023-10-31T20:20:06;94430.06;;;17.04;62.67
6435;BME280;3250;42.694;23.278;2023-10-31T20:22:33;94428.97;;;17.05;62.63
6435;BME280;3250;42.694;23.278;2023-10-31T20:24:58;94423.94;;;17.03;62.06
6435;BME280;3250;42.694;23.278;2023-10-31T20:27:24;94418.34;;;17.05;63.13
6435;BME280;3250;42.694;23.278;2023-10-31T20:29:50;94424.97;;;16.97;63.23
6435;BME280;3250;42.694;23.278;2023-10-31T20:32:15;94424.94;;;16.87;63.75
6435;BME280;3250;42.694;23.278;2023-10-31T20:34:41;94404.97;;;16.79;63.82
6435;BME280;3250;42.694;23.278;2023-10-31T20:37:07;94401.81;;;16.87;63.49
6435;BME280;3250;42.694;23.278;2023-10-31T20:39:32;94412.44;;;16.87;62.96
6435;BME280;3250;42.694;23.278;2023-10-31T20:41:58;94410.56;;;16.83;63.05
6435;BME280;3250;42.694;23.278;2023-10-31T20:44:23;94411.34;;;16.73;62.93
6435;BME280;3250;42.694;23.278;2023-10-31T20:46:49;94410.06;;;16.86;62.79
6435;BME280;3250;42.694;23.278;2023-10-31T20:49:16;94394.63;;;16.88;62.53
6435;BME280;3250;42.694;23.278;2023-10-31T20:51:42;94417.28;;;17.01;62.31
6435;BME280;3250;42.694;23.278;2023-10-31T20:54:07;94421.81;;;17.00;62.27
6435;BME280;3250;42.694;23.278;2023-10-31T20:56:33;94414.59;;;16.95;62.26
6435;BME280;3250;42.694;23.278;2023-10-31T20:58:58;94411.16;;;17.00;61.66
6435;BME280;3250;42.694;23.278;2023-10-31T21:01:26;94430.06;;;17.09;62.28
6435;BME280;3250;42.694;23.278;2023-10-31T21:03:52;94415.69;;;17.00;61.57
6435;BME280;3250;42.694;23.278;2023-10-31T21:06:17;94427.41;;;17.04;61.86
6435;BME280;3250;42.694;23.278;2023-10-31T21:08:43;94433.72;;;16.87;62.81
6435;BME280;3250;42.694;23.278;2023-10-31T21:11:09;94446.69;;;16.79;63.83
6435;BME280;3250;42.694;23.278;2023-10-31T21:13:34;94455.78;;;16.83;63.49
6435;BME280;3250;42.694;23.278;2023-10-31T21:16:00;94432.31;;;16.70;63.61
6435;BME280;3250;42.694;23.278;2023-10-31T21:18:25;94441.06;;;16.65;63.84
6435;BME280;3250;42.694;23.278;2023-10-31T21:20:51;94450.25;;;16.52;64.35
6435;BME280;3250;42.694;23.278;2023-10-31T21:23:16;94441.56;;;16.62;63.77
6435;BME280;3250;42.694;23.278;2023-10-31T21:25:42;94450.94;;;16.75;64.02
6435;BME280;3250;42.694;23.278;2023-10-31T21:28:08;94443.78;;;16.80;64.10
6435;BME280;3250;42.694;23.278;2023-10-31T21:30:34;94445.34;;;16.71;64.44
6435;BME280;3250;42.694;23.278;2023-10-31T21:33:00;94442.56;;;16.51;65.15
6435;BME280;3250;42.694;23.278;2023-10-31T21:35:26;94430.84;;;16.52;65.29
6435;BME280;3250;42.694;23.278;2023-10-31T21:37:53;94447.91;;;16.56;65.77
6435;BME280;3250;42.694;23.278;2023-10-31T21:40:18;94428.91;;;16.37;65.82
6435;BME280;3250;42.694;23.278;2023-10-31T21:42:44;94435.84;;;16.38;66.16
6435;BME280;3250;42.694;23.278;2023-10-31T21:45:09;94413.69;;;16.22;66.05
6435;BME280;3250;42.694;23.278;2023-10-31T21:47:35;94421.94;;;16.26;66.20
6435;BME280;3250;42.694;23.278;2023-10-31T21:50:00;94429.66;;;16.28;65.95
6435;BME280;3250;42.694;23.278;2023-10-31T21:52:26;94436.03;;;16.27;66.53
6435;BME280;3250;42.694;23.278;2023-10-31T21:54:51;94438.91;;;16.20;66.71
6435;BME280;3250;42.694;23.278;2023-10-31T21:57:17;94415.22;;;16.08;67.29